createdAt,value
2018-11-26T00:01:25.769Z,99.90
2018-11-26T00:03:54.144Z,99.90
2018-11-26T00:06:22.437Z,99.90
2018-11-26T00:08:50.693Z,99.90
2018-11-26T00:11:31.405Z,99.90
2018-11-26T00:13:59.670Z,99.90
2018-11-26T00:16:27.904Z,99.90
2018-11-26T00:18:56.163Z,99.90
2018-11-26T00:21:24.464Z,99.90
2018-11-26T00:23:52.797Z,99.90
2018-11-26T00:26:21.054Z,99.90
2018-11-26T00:28:49.313Z,99.90
2018-11-26T00:31:17.540Z,99.90
2018-11-26T00:33:46.420Z,99.90
2018-11-26T00:36:14.660Z,99.90
2018-11-26T00:38:42.886Z,99.90
2018-11-26T00:41:11.147Z,99.90
2018-11-26T00:43:39.437Z,99.90
2018-11-26T00:46:07.700Z,99.90
2018-11-26T00:48:35.998Z,99.90
2018-11-26T00:51:04.613Z,99.90
2018-11-26T00:53:32.872Z,99.90
2018-11-26T00:56:01.128Z,99.90
2018-11-26T00:58:29.402Z,99.90
2018-11-26T01:00:57.723Z,99.90
2018-11-26T01:03:25.960Z,99.90
2018-11-26T01:05:54.225Z,99.90
2018-11-26T01:08:22.518Z,99.90
2018-11-26T01:10:50.787Z,99.90
2018-11-26T01:13:19.056Z,99.90
2018-11-26T01:15:47.441Z,99.90
2018-11-26T01:18:15.706Z,99.90
2018-11-26T01:20:44.049Z,99.90
2018-11-26T01:23:12.289Z,99.90
2018-11-26T01:25:40.553Z,99.90
2018-11-26T01:28:08.853Z,99.90
2018-11-26T01:30:37.384Z,99.90
2018-11-26T01:33:05.702Z,99.90
2018-11-26T01:35:33.951Z,99.90
2018-11-26T01:38:02.185Z,99.90
2018-11-26T01:40:35.911Z,99.90
2018-11-26T01:43:04.157Z,99.90
2018-11-26T01:45:32.540Z,99.90
2018-11-26T01:48:00.825Z,99.90
2018-11-26T01:50:29.061Z,99.90
2018-11-26T01:52:57.313Z,99.90
2018-11-26T01:55:26.386Z,99.90
2018-11-26T01:57:54.656Z,99.90
2018-11-26T02:00:25.785Z,99.90
2018-11-26T02:02:54.320Z,99.90
2018-11-26T02:05:22.707Z,99.90
2018-11-26T02:07:50.991Z,99.90
2018-11-26T02:10:19.983Z,99.90
2018-11-26T02:12:48.296Z,99.90
2018-11-26T02:15:27.765Z,99.90
2018-11-26T02:17:56.066Z,99.90
2018-11-26T02:20:24.305Z,99.90
2018-11-26T02:22:52.579Z,99.90
2018-11-26T02:25:20.832Z,99.90
2018-11-26T02:27:49.084Z,99.90
2018-11-26T02:30:17.372Z,99.90
2018-11-26T02:32:45.629Z,99.90
2018-11-26T02:35:13.882Z,99.90
2018-11-26T02:37:42.142Z,99.90
2018-11-26T02:40:15.731Z,99.90
2018-11-26T02:42:43.996Z,99.90
2018-11-26T02:45:12.412Z,99.90
2018-11-26T02:47:40.677Z,99.90
2018-11-26T02:50:08.954Z,99.90
2018-11-26T02:52:37.195Z,99.90
2018-11-26T02:55:05.661Z,99.90
2018-11-26T02:57:33.919Z,99.90
2018-11-26T03:00:02.158Z,99.90
2018-11-26T03:02:30.384Z,99.90
2018-11-26T03:04:58.684Z,99.90
2018-11-26T03:07:26.939Z,99.90
2018-11-26T03:09:55.294Z,99.90
2018-11-26T03:12:23.541Z,99.90
2018-11-26T03:14:51.968Z,99.90
2018-11-26T03:17:20.254Z,99.90
2018-11-26T03:19:48.542Z,99.90
2018-11-26T03:22:16.785Z,99.90
2018-11-26T03:27:35.980Z,99.90
2018-11-26T03:30:07.810Z,99.90
2018-11-26T03:32:36.101Z,99.90
2018-11-26T03:35:05.349Z,99.90
2018-11-26T03:37:33.619Z,99.90
2018-11-26T03:40:02.095Z,99.90
2018-11-26T03:42:30.369Z,99.90
2018-11-26T03:44:58.632Z,99.90
2018-11-26T03:47:26.849Z,99.90
2018-11-26T03:49:55.123Z,99.90
2018-11-26T03:52:23.352Z,99.90
2018-11-26T03:54:51.627Z,99.90
2018-11-26T03:57:19.868Z,99.90
2018-11-26T03:59:48.114Z,99.90
2018-11-26T04:02:16.342Z,99.90
2018-11-26T04:04:44.806Z,99.90
2018-11-26T04:07:13.261Z,99.90
2018-11-26T04:09:41.540Z,99.90
2018-11-26T04:12:09.813Z,99.90
2018-11-26T04:14:38.084Z,99.90
2018-11-26T04:17:06.663Z,99.90
2018-11-26T04:19:34.957Z,99.90
2018-11-26T04:22:03.196Z,99.90
2018-11-26T04:24:31.468Z,99.90
2018-11-26T04:26:59.730Z,99.90
2018-11-26T04:29:28.042Z,99.90
2018-11-26T04:31:56.297Z,99.90
2018-11-26T04:34:24.594Z,99.90
2018-11-26T04:36:52.880Z,99.90
2018-11-26T04:39:21.143Z,99.90
2018-11-26T04:41:49.386Z,99.90
2018-11-26T04:44:17.669Z,99.90
2018-11-26T04:46:45.918Z,99.90
2018-11-26T04:49:14.167Z,99.90
2018-11-26T04:51:42.457Z,99.90
2018-11-26T04:54:10.743Z,99.90
2018-11-26T04:56:38.997Z,99.90
2018-11-26T04:59:07.297Z,99.90
2018-11-26T05:01:35.549Z,99.90
2018-11-26T05:04:03.899Z,99.90
2018-11-26T05:06:32.164Z,99.90
2018-11-26T05:09:00.430Z,99.90
2018-11-26T05:11:28.749Z,99.90
2018-11-26T05:13:56.986Z,99.90
2018-11-26T05:16:25.260Z,99.90
2018-11-26T05:18:53.773Z,99.90
2018-11-26T05:21:21.993Z,99.90
2018-11-26T05:23:50.269Z,99.90
2018-11-26T05:26:18.524Z,99.90
2018-11-26T05:28:46.812Z,99.90
2018-11-26T05:31:15.080Z,99.90
2018-11-26T05:33:43.441Z,99.90
2018-11-26T05:36:11.717Z,99.90
2018-11-26T05:38:39.960Z,99.90
2018-11-26T05:41:08.229Z,99.90
2018-11-26T05:43:36.494Z,99.90
2018-11-26T05:46:04.888Z,99.90
2018-11-26T05:48:33.132Z,99.90
2018-11-26T05:51:01.417Z,99.90
2018-11-26T05:53:29.675Z,99.90
2018-11-26T05:55:57.932Z,99.90
2018-11-26T05:58:26.195Z,99.90
2018-11-26T06:00:54.493Z,99.90
2018-11-26T06:03:22.800Z,99.90
2018-11-26T06:05:51.086Z,99.90
2018-11-26T06:08:19.513Z,99.90
2018-11-26T06:10:48.101Z,99.90
2018-11-26T06:13:16.385Z,99.90
2018-11-26T06:15:44.702Z,99.90
2018-11-26T06:18:13.163Z,99.90
2018-11-26T06:20:41.452Z,99.90
2018-11-26T06:23:09.722Z,99.90
2018-11-26T06:25:38.045Z,99.90
2018-11-26T06:28:06.335Z,99.90
2018-11-26T06:30:34.626Z,99.90
2018-11-26T06:33:02.954Z,99.90
2018-11-26T06:35:31.431Z,99.90
2018-11-26T06:37:59.749Z,99.90
2018-11-26T06:40:27.981Z,99.90
2018-11-26T06:42:56.205Z,99.90
2018-11-26T06:45:24.564Z,99.90
2018-11-26T06:47:52.857Z,99.90
2018-11-26T06:50:21.397Z,99.90
2018-11-26T06:52:49.680Z,99.90
2018-11-26T06:55:20.641Z,99.90
2018-11-26T06:57:48.949Z,99.90
2018-11-26T07:00:18.374Z,99.90
2018-11-26T07:02:46.637Z,99.90
2018-11-26T07:05:19.193Z,99.90
2018-11-26T07:07:47.517Z,99.90
2018-11-26T07:10:16.215Z,99.90
2018-11-26T07:12:44.500Z,99.90
2018-11-26T07:15:14.749Z,99.90
2018-11-26T07:17:43.055Z,99.90
2018-11-26T07:20:14.087Z,99.90
2018-11-26T07:22:42.420Z,99.90
2018-11-26T07:25:15.737Z,99.90
2018-11-26T07:27:45.201Z,99.90
2018-11-26T07:30:21.916Z,99.90
2018-11-26T07:32:50.228Z,99.90
2018-11-26T07:35:18.476Z,99.90
2018-11-26T07:37:46.784Z,99.90
2018-11-26T07:40:22.753Z,99.90
2018-11-26T07:43:22.913Z,99.90
2018-11-26T07:46:11.655Z,99.90
2018-11-26T07:48:39.913Z,99.90
2018-11-26T07:51:08.207Z,99.90
2018-11-26T07:53:36.453Z,99.90
2018-11-26T07:56:04.789Z,99.90
2018-11-26T07:58:33.040Z,99.90
2018-11-26T08:01:01.309Z,99.90
2018-11-26T08:03:29.552Z,99.90
2018-11-26T08:05:57.856Z,99.90
2018-11-26T08:08:26.148Z,99.90
2018-11-26T08:10:54.385Z,99.90
2018-11-26T08:13:22.685Z,99.90
2018-11-26T08:15:50.943Z,99.90
2018-11-26T08:18:19.233Z,99.90
2018-11-26T08:20:47.480Z,99.90
2018-11-26T08:23:15.751Z,99.90
2018-11-26T08:25:44.074Z,99.90
2018-11-26T08:28:12.337Z,99.90
2018-11-26T08:30:40.593Z,99.90
2018-11-26T08:33:08.891Z,99.90
2018-11-26T08:35:37.142Z,99.90
2018-11-26T08:38:07.714Z,99.90
2018-11-26T08:40:41.350Z,99.90
2018-11-26T08:43:15.131Z,99.90
2018-11-26T08:45:51.681Z,99.90
2018-11-26T08:48:26.222Z,99.90
2018-11-26T08:50:55.572Z,99.90
2018-11-26T08:53:24.030Z,99.90
2018-11-26T08:55:52.317Z,99.90
2018-11-26T08:58:20.608Z,99.90
2018-11-26T09:00:54.301Z,99.90
2018-11-26T09:03:22.598Z,99.90
2018-11-26T09:06:05.579Z,99.90
2018-11-26T09:08:34.997Z,99.90
2018-11-26T09:11:03.784Z,99.90
2018-11-26T09:13:32.039Z,99.90
2018-11-26T09:16:00.342Z,99.90
2018-11-26T09:18:28.601Z,99.90
2018-11-26T09:20:56.891Z,99.90
2018-11-26T09:23:25.173Z,99.90
2018-11-26T09:25:53.428Z,99.90
2018-11-26T09:28:21.727Z,99.90
2018-11-26T09:30:50.028Z,99.90
2018-11-26T09:33:18.281Z,99.90
2018-11-26T09:35:46.630Z,99.90
2018-11-26T09:38:14.957Z,99.90
2018-11-26T09:40:43.289Z,99.90
2018-11-26T09:43:11.712Z,99.90
2018-11-26T09:45:40.531Z,99.90
2018-11-26T09:48:08.300Z,99.90
2018-11-26T09:50:36.596Z,99.90
2018-11-26T09:53:04.990Z,99.90
2018-11-26T09:55:33.253Z,99.90
2018-11-26T09:58:01.578Z,99.90
2018-11-26T10:00:29.874Z,99.90
2018-11-26T10:02:58.194Z,99.90
2018-11-26T10:05:26.714Z,99.90
2018-11-26T10:07:54.849Z,99.90
2018-11-26T10:10:23.141Z,99.90
2018-11-26T10:12:51.374Z,99.90
2018-11-26T10:15:21.588Z,99.90
2018-11-26T10:27:10.381Z,99.90
2018-11-26T10:29:38.981Z,99.90
2018-11-26T10:32:07.224Z,99.90
2018-11-26T10:34:35.555Z,99.90
2018-11-26T10:37:03.845Z,99.90
2018-11-26T10:39:32.446Z,99.90
2018-11-26T10:42:01.139Z,99.90
2018-11-26T10:44:29.383Z,99.90
2018-11-26T10:46:57.744Z,99.90
2018-11-26T10:49:26.321Z,99.90
2018-11-26T10:51:54.838Z,99.90
2018-11-26T10:54:23.392Z,99.90
2018-11-26T10:56:52.061Z,99.90
2018-11-26T10:59:20.407Z,99.90
2018-11-26T11:01:53.088Z,99.90
2018-11-26T11:04:21.509Z,99.90
2018-11-26T11:06:55.720Z,99.90
2018-11-26T11:09:18.559Z,99.90
2018-11-26T11:11:46.892Z,99.90
2018-11-26T11:14:15.197Z,99.90
2018-11-26T11:16:43.777Z,99.90
2018-11-26T11:19:12.328Z,99.90
2018-11-26T11:21:40.726Z,99.90
2018-11-26T11:24:09.397Z,99.90
2018-11-26T11:26:37.769Z,99.90
2018-11-26T11:29:06.481Z,99.90
2018-11-26T11:31:34.918Z,99.90
2018-11-26T11:34:03.204Z,99.90
2018-11-26T11:36:31.728Z,99.90
2018-11-26T11:39:00.082Z,99.90
2018-11-26T11:41:28.657Z,99.90
2018-11-26T11:43:57.312Z,99.90
2018-11-26T11:46:27.058Z,99.90
2018-11-26T11:48:55.429Z,99.90
2018-11-26T11:51:23.857Z,99.90
2018-11-26T11:53:52.549Z,99.90
2018-11-26T11:56:20.935Z,99.90
2018-11-26T11:58:49.252Z,99.90
2018-11-26T12:01:17.585Z,99.90
2018-11-26T12:03:46.023Z,99.90
2018-11-26T12:06:14.594Z,99.90
2018-11-26T12:08:43.074Z,99.90
2018-11-26T12:11:11.763Z,99.90
2018-11-26T12:13:40.063Z,99.90
2018-11-26T12:16:08.465Z,99.90
2018-11-26T12:18:36.750Z,99.90
2018-11-26T12:21:05.851Z,99.90
2018-11-26T12:23:34.282Z,99.90
2018-11-26T12:26:02.846Z,99.90
2018-11-26T12:28:31.182Z,99.90
2018-11-26T12:30:59.589Z,99.90
2018-11-26T12:33:27.999Z,99.90
2018-11-26T12:35:56.415Z,99.90
2018-11-26T12:38:25.216Z,99.90
2018-11-26T12:40:53.697Z,99.90
2018-11-26T12:43:22.078Z,99.90
2018-11-26T12:45:50.475Z,99.90
2018-11-26T12:48:18.817Z,99.90
2018-11-26T12:50:47.305Z,99.90
2018-11-26T12:53:15.889Z,99.90
2018-11-26T12:55:44.713Z,99.90
2018-11-26T12:58:13.086Z,99.90
2018-11-26T13:00:41.554Z,99.90
2018-11-26T13:03:13.919Z,99.90
2018-11-26T13:05:42.185Z,99.90
2018-11-26T13:08:10.466Z,99.90
2018-11-26T13:10:39.407Z,99.90
2018-11-26T13:13:09.241Z,99.90
2018-11-26T13:15:37.864Z,99.90
2018-11-26T13:18:06.705Z,99.90
2018-11-26T13:20:35.001Z,99.90
2018-11-26T13:23:03.263Z,99.90
2018-11-26T13:25:34.176Z,99.90
2018-11-26T13:28:03.366Z,99.90
2018-11-26T13:30:33.916Z,99.90
2018-11-26T13:33:03.991Z,99.90
2018-11-26T13:35:32.428Z,99.90
2018-11-26T13:38:00.865Z,99.90
2018-11-26T13:40:29.418Z,99.90
2018-11-26T13:42:58.455Z,99.90
2018-11-26T13:45:29.907Z,99.90
2018-11-26T13:47:58.270Z,99.90
2018-11-26T13:50:30.834Z,99.90
2018-11-26T13:52:59.105Z,99.90
2018-11-26T13:55:27.936Z,99.90
2018-11-26T13:57:56.260Z,99.90
2018-11-26T14:00:24.708Z,99.90
2018-11-26T14:02:53.223Z,99.90
2018-11-26T14:05:21.702Z,99.90
2018-11-26T14:07:50.156Z,99.90
2018-11-26T14:10:21.620Z,99.90
2018-11-26T14:12:51.770Z,99.90
2018-11-26T14:15:20.995Z,99.90
2018-11-26T14:17:49.706Z,99.90
2018-11-26T14:20:18.197Z,99.90
2018-11-26T14:22:46.453Z,99.90
2018-11-26T14:25:15.842Z,99.90
2018-11-26T14:27:44.742Z,99.90
2018-11-26T14:30:31.446Z,99.90
2018-11-26T14:33:00.275Z,99.90
2018-11-26T14:35:28.582Z,99.90
2018-11-26T14:37:58.190Z,99.90
2018-11-26T14:40:29.709Z,99.90
2018-11-26T14:42:58.225Z,99.90
2018-11-26T14:45:26.961Z,99.90
2018-11-26T14:47:55.210Z,99.90
2018-11-26T14:50:23.461Z,99.90
2018-11-26T14:52:51.801Z,99.90
2018-11-26T14:55:24.375Z,99.90
2018-11-26T14:57:52.639Z,99.90
2018-11-26T15:00:21.402Z,99.90
2018-11-26T15:02:49.763Z,99.90
2018-11-26T15:05:18.068Z,99.90
2018-11-26T15:07:46.409Z,99.90
2018-11-26T15:10:15.788Z,99.90
2018-11-26T15:12:44.499Z,99.90
2018-11-26T15:15:14.717Z,99.90
2018-11-26T15:17:43.640Z,99.90
2018-11-26T15:20:15.203Z,99.90
2018-11-26T15:22:43.500Z,99.90
2018-11-26T15:25:15.023Z,99.90
2018-11-26T15:27:43.355Z,99.90
2018-11-26T15:30:13.712Z,99.90
2018-11-26T15:32:41.999Z,99.90
2018-11-26T15:35:15.424Z,99.90
2018-11-26T15:37:43.791Z,99.90
2018-11-26T15:40:12.982Z,99.90
2018-11-26T15:42:41.283Z,99.90
2018-11-26T15:45:26.641Z,99.90
2018-11-26T15:47:56.255Z,99.90
2018-11-26T15:50:24.505Z,99.90
2018-11-26T15:52:52.798Z,99.90
2018-11-26T15:55:21.805Z,99.90
2018-11-26T15:57:50.190Z,99.90
2018-11-26T16:00:22.655Z,99.90
2018-11-26T16:02:51.310Z,99.90
2018-11-26T16:05:21.766Z,99.90
2018-11-26T16:07:50.515Z,99.90
2018-11-26T16:10:18.810Z,99.90
2018-11-26T16:12:48.510Z,99.90
2018-11-26T16:15:19.282Z,99.90
2018-11-26T16:17:47.643Z,99.90
2018-11-26T16:20:17.558Z,99.90
2018-11-26T16:22:45.852Z,99.90
2018-11-26T16:25:15.749Z,99.90
2018-11-26T16:27:44.023Z,99.90
2018-11-26T16:30:14.362Z,99.90
2018-11-26T16:32:43.855Z,99.90
2018-11-26T16:35:16.569Z,99.90
2018-11-26T16:37:44.843Z,99.90
2018-11-26T16:40:14.550Z,99.90
2018-11-26T16:42:43.699Z,99.90
2018-11-26T16:45:14.477Z,99.90
2018-11-26T16:47:43.294Z,99.90
2018-11-26T16:50:13.370Z,99.90
2018-11-26T16:52:41.742Z,99.90
2018-11-26T16:55:11.822Z,99.90
2018-11-26T16:57:40.260Z,99.90
2018-11-26T17:00:16.078Z,99.90
2018-11-26T17:02:45.661Z,99.90
2018-11-26T17:05:16.774Z,99.90
2018-11-26T17:07:45.418Z,99.90
2018-11-26T17:10:14.347Z,99.90
2018-11-26T17:12:43.688Z,99.90
2018-11-26T17:15:14.063Z,99.90
2018-11-26T17:17:42.427Z,99.90
2018-11-26T17:20:11.992Z,99.90
2018-11-26T17:22:40.339Z,99.90
2018-11-26T17:25:13.780Z,99.90
2018-11-26T17:27:42.666Z,99.90
2018-11-26T17:30:20.026Z,99.90
2018-11-26T17:32:49.676Z,99.90
2018-11-26T17:35:18.045Z,99.90
2018-11-26T17:37:46.300Z,99.90
2018-11-26T17:40:16.942Z,99.90
2018-11-26T17:42:45.238Z,99.90
2018-11-26T17:45:14.520Z,99.90
2018-11-26T17:47:44.685Z,99.90
2018-11-26T17:50:17.383Z,99.90
2018-11-26T17:52:45.783Z,99.90
2018-11-26T17:55:14.113Z,99.90
2018-11-26T17:57:42.375Z,99.90
2018-11-26T18:00:19.727Z,99.90
2018-11-26T18:02:48.002Z,99.90
2018-11-26T18:05:17.554Z,99.90
2018-11-26T18:07:47.209Z,99.90
2018-11-26T18:10:15.783Z,99.90
2018-11-26T18:12:44.087Z,99.90
2018-11-26T18:15:14.230Z,99.90
2018-11-26T18:17:43.495Z,99.80
2018-11-26T18:20:16.969Z,99.90
2018-11-26T18:22:46.521Z,99.80
2018-11-26T18:25:15.392Z,99.90
2018-11-26T18:27:51.559Z,99.80
2018-11-26T18:30:25.775Z,99.80
2018-11-26T18:32:54.029Z,99.70
2018-11-26T18:35:22.430Z,99.70
2018-11-26T18:37:50.751Z,99.60
2018-11-26T18:40:19.017Z,99.60
2018-11-26T18:42:47.289Z,99.50
2018-11-26T18:45:19.184Z,99.50
2018-11-26T18:47:48.286Z,99.40
2018-11-26T18:50:19.469Z,99.40
2018-11-26T18:52:48.607Z,99.30
2018-11-26T18:55:16.939Z,99.20
2018-11-26T18:57:45.222Z,99.20
2018-11-26T19:00:21.369Z,99.40
2018-11-26T19:02:49.872Z,99.50
2018-11-26T19:05:18.963Z,99.40
2018-11-26T19:07:47.245Z,99.20
2018-11-26T19:10:16.813Z,99.30
2018-11-26T19:12:46.635Z,99.40
2018-11-26T19:15:18.035Z,99.30
2018-11-26T19:17:46.854Z,99.20
2018-11-26T19:20:15.182Z,99.40
2018-11-26T19:22:44.092Z,99.40
2018-11-26T19:25:15.138Z,99.40
2018-11-26T19:27:44.215Z,99.40
2018-11-26T19:30:13.626Z,99.40
2018-11-26T19:32:42.722Z,99.30
2018-11-26T19:35:12.535Z,99.00
2018-11-26T19:37:40.918Z,99.10
2018-11-26T19:40:14.595Z,99.10
2018-11-26T19:42:45.217Z,99.10
2018-11-26T19:47:58.626Z,99.10
2018-11-26T19:50:28.109Z,99.00
2018-11-26T19:52:56.473Z,99.10
2018-11-26T19:55:26.218Z,99.10
2018-11-26T19:57:56.919Z,99.10
2018-11-26T20:00:27.782Z,99.10
2018-11-26T20:02:59.100Z,99.00
2018-11-26T20:05:34.911Z,99.10
2018-11-26T20:08:03.493Z,99.00
2018-11-26T20:10:32.497Z,99.00
2018-11-26T20:13:01.407Z,99.00
2018-11-26T20:15:29.821Z,99.00
2018-11-26T20:17:59.137Z,98.90
2018-11-26T20:20:26.639Z,98.90
2018-11-26T20:22:55.202Z,98.70
2018-11-26T20:25:23.596Z,98.80
2018-11-26T20:27:52.300Z,98.80
2018-11-26T20:30:21.827Z,98.80
2018-11-26T20:32:52.123Z,98.90
2018-11-26T20:35:21.163Z,98.90
2018-11-26T20:37:49.878Z,98.80
2018-11-26T20:40:19.052Z,98.80
2018-11-26T20:42:53.369Z,98.80
2018-11-26T20:45:22.537Z,98.90
2018-11-26T20:47:51.942Z,98.90
2018-11-26T20:50:24.862Z,98.90
2018-11-26T20:52:53.859Z,98.90
2018-11-26T20:55:23.834Z,98.90
2018-11-26T20:57:53.644Z,98.90
2018-11-26T21:00:25.005Z,98.90
2018-11-26T21:02:55.962Z,98.70
2018-11-26T21:05:25.029Z,98.70
2018-11-26T21:07:53.587Z,98.80
2018-11-26T21:10:22.006Z,98.80
2018-11-26T21:12:50.769Z,98.80
2018-11-26T21:15:19.260Z,98.80
2018-11-26T21:17:49.028Z,99.20
2018-11-26T21:20:28.610Z,99.10
2018-11-26T21:22:57.567Z,99.00
2018-11-26T21:25:25.851Z,98.80
2018-11-26T21:27:54.074Z,98.90
2018-11-26T21:30:22.345Z,98.70
2018-11-26T21:32:50.578Z,98.80
2018-11-26T21:35:19.636Z,98.70
2018-11-26T21:40:47.970Z,98.70
2018-11-26T21:43:16.243Z,98.80
2018-11-26T21:45:58.223Z,98.70
2018-11-26T21:48:26.839Z,98.60
2018-11-26T21:50:55.429Z,98.60
2018-11-26T21:53:23.747Z,98.60
2018-11-26T21:55:57.156Z,98.80
2018-11-26T21:58:25.411Z,98.80
2018-11-26T22:00:55.635Z,98.70
2018-11-26T22:03:23.922Z,98.70
2018-11-26T22:05:52.241Z,98.70
2018-11-26T22:08:20.494Z,98.70
2018-11-26T22:10:48.786Z,98.70
2018-11-26T22:13:18.775Z,98.70
2018-11-26T22:15:47.058Z,98.70
2018-11-26T22:18:15.343Z,98.60
2018-11-26T22:20:43.611Z,98.60
2018-11-26T22:23:11.882Z,98.60
2018-11-26T22:25:40.252Z,98.60
2018-11-26T22:28:09.857Z,98.60
2018-11-26T22:30:38.727Z,98.60
2018-11-26T22:33:07.043Z,98.70
2018-11-26T22:35:35.323Z,98.70
2018-11-26T22:38:03.627Z,98.90
2018-11-26T22:40:31.934Z,99.00
2018-11-26T22:43:00.190Z,98.90
2018-11-26T22:45:34.880Z,98.80
2018-11-26T22:48:08.577Z,98.60
2018-11-26T22:50:38.062Z,98.90
2018-11-26T22:53:07.636Z,98.60
2018-11-26T22:55:35.966Z,98.70
2018-11-26T22:58:04.560Z,98.70
2018-11-26T23:00:40.200Z,98.80
2018-11-26T23:03:08.525Z,98.80
2018-11-26T23:05:36.790Z,98.80
2018-11-26T23:08:05.457Z,98.60
2018-11-26T23:10:33.761Z,98.70
2018-11-26T23:13:02.026Z,98.70
2018-11-26T23:15:30.338Z,98.70
2018-11-26T23:17:58.591Z,98.60
2018-11-26T23:20:26.870Z,98.60
2018-11-26T23:22:55.143Z,98.70
2018-11-26T23:25:23.405Z,98.80
2018-11-26T23:27:51.698Z,98.80
2018-11-26T23:30:23.851Z,98.70
2018-11-26T23:32:58.151Z,98.60
2018-11-26T23:35:26.502Z,98.50
2018-11-26T23:37:54.783Z,98.50
2018-11-26T23:40:23.069Z,98.50
2018-11-26T23:42:51.355Z,98.70
2018-11-26T23:45:20.755Z,98.70
2018-11-26T23:47:49.022Z,98.70
2018-11-26T23:50:17.612Z,98.60
2018-11-26T23:52:46.319Z,98.70
2018-11-26T23:55:16.656Z,98.70
2018-11-26T23:57:44.965Z,98.70
